createdAt,value
2018-08-16T00:00:04.919Z,25.24
2018-08-16T00:02:30.886Z,25.26
2018-08-16T00:04:56.864Z,25.22
2018-08-16T00:07:22.896Z,25.20
2018-08-16T00:09:48.862Z,25.21
2018-08-16T00:12:14.827Z,25.24
2018-08-16T00:14:40.868Z,25.27
2018-08-16T00:17:06.849Z,25.24
2018-08-16T00:19:32.912Z,25.25
2018-08-16T00:21:58.910Z,25.28
2018-08-16T00:24:24.869Z,25.27
2018-08-16T00:26:50.816Z,25.29
2018-08-16T00:29:16.797Z,25.34
2018-08-16T00:31:42.797Z,25.43
2018-08-16T00:34:08.768Z,25.31
2018-08-16T00:36:34.737Z,25.33
2018-08-16T00:39:00.737Z,25.39
2018-08-16T00:41:26.988Z,25.31
2018-08-16T00:43:52.955Z,25.33
2018-08-16T00:46:18.954Z,25.27
2018-08-16T00:48:44.960Z,25.29
2018-08-16T00:51:10.947Z,25.27
2018-08-16T00:53:36.916Z,25.34
2018-08-16T00:56:02.937Z,25.26
2018-08-16T00:58:28.923Z,25.28
2018-08-16T01:00:54.908Z,25.31
2018-08-16T01:03:20.929Z,25.27
2018-08-16T01:05:46.890Z,25.28
2018-08-16T01:08:12.851Z,25.25
2018-08-16T01:10:38.863Z,25.28
2018-08-16T01:13:04.831Z,25.22
2018-08-16T01:15:30.841Z,25.30
2018-08-16T01:17:56.825Z,25.23
2018-08-16T01:20:22.937Z,25.23
2018-08-16T01:22:48.869Z,25.26
2018-08-16T01:25:14.842Z,25.25
2018-08-16T01:27:40.775Z,25.24
2018-08-16T01:30:06.765Z,25.25
2018-08-16T01:32:32.737Z,25.22
2018-08-16T01:34:58.706Z,25.23
2018-08-16T01:37:24.676Z,25.22
2018-08-16T01:39:50.653Z,25.21
2018-08-16T01:42:16.616Z,25.22
2018-08-16T01:44:42.589Z,25.16
2018-08-16T01:47:08.574Z,25.24
2018-08-16T01:49:34.556Z,25.23
2018-08-16T01:52:00.560Z,25.23
2018-08-16T01:54:27.541Z,25.22
2018-08-16T01:56:53.549Z,25.25
2018-08-16T01:59:19.531Z,25.21
2018-08-16T02:01:45.749Z,25.20
2018-08-16T02:04:11.717Z,25.24
2018-08-16T02:06:37.719Z,25.22
2018-08-16T02:09:03.680Z,25.20
2018-08-16T02:11:29.957Z,25.17
2018-08-16T02:13:55.936Z,25.13
2018-08-16T02:16:21.930Z,25.13
2018-08-16T02:18:47.945Z,25.20
2018-08-16T02:21:14.288Z,25.18
2018-08-16T02:23:40.242Z,25.10
2018-08-16T02:26:06.281Z,25.22
2018-08-16T02:28:32.268Z,25.15
2018-08-16T02:30:58.381Z,25.14
2018-08-16T02:33:24.421Z,25.16
2018-08-16T02:35:50.356Z,25.18
2018-08-16T02:38:16.322Z,25.12
2018-08-16T02:40:42.271Z,25.11
2018-08-16T02:43:08.257Z,25.15
2018-08-16T02:45:34.579Z,25.17
2018-08-16T02:48:00.561Z,25.13
2018-08-16T02:50:26.535Z,25.12
2018-08-16T02:52:52.515Z,25.12
2018-08-16T02:55:18.498Z,25.15
2018-08-16T02:57:44.487Z,25.12
2018-08-16T03:00:10.511Z,25.09
2018-08-16T03:02:36.503Z,25.07
2018-08-16T03:07:34.950Z,25.12
2018-08-16T03:10:00.958Z,25.10
2018-08-16T03:12:26.955Z,25.10
2018-08-16T03:14:52.973Z,25.23
2018-08-16T03:17:18.956Z,25.20
2018-08-16T03:19:45.251Z,25.18
2018-08-16T03:22:11.215Z,25.10
2018-08-16T03:24:37.361Z,25.20
2018-08-16T03:27:03.356Z,25.14
2018-08-16T03:29:29.352Z,25.12
2018-08-16T03:31:55.320Z,25.16
2018-08-16T03:34:21.285Z,25.02
2018-08-16T03:36:47.261Z,25.12
2018-08-16T03:39:13.244Z,25.10
2018-08-16T03:41:39.230Z,25.07
2018-08-16T03:44:05.171Z,25.15
2018-08-16T03:46:31.191Z,25.16
2018-08-16T03:48:57.198Z,25.13
2018-08-16T03:51:23.192Z,25.13
2018-08-16T03:53:49.179Z,25.11
2018-08-16T03:56:15.165Z,25.08
2018-08-16T03:58:41.151Z,25.07
2018-08-16T04:01:07.139Z,25.06
2018-08-16T04:03:33.118Z,25.08
2018-08-16T04:05:59.401Z,25.11
2018-08-16T04:08:25.392Z,25.14
2018-08-16T04:10:51.375Z,25.06
2018-08-16T04:13:17.352Z,25.07
2018-08-16T04:15:43.312Z,25.10
2018-08-16T04:18:09.330Z,25.09
2018-08-16T04:20:35.288Z,25.02
2018-08-16T04:23:01.419Z,25.06
2018-08-16T04:25:27.376Z,25.14
2018-08-16T04:27:53.390Z,25.07
2018-08-16T04:30:19.469Z,25.07
2018-08-16T04:32:45.442Z,25.11
2018-08-16T04:35:11.540Z,25.02
2018-08-16T04:37:37.467Z,25.02
2018-08-16T04:40:03.441Z,24.99
2018-08-16T04:42:29.424Z,25.00
2018-08-16T04:44:55.406Z,25.01
2018-08-16T04:47:21.400Z,25.01
2018-08-16T04:49:47.337Z,25.06
2018-08-16T04:52:13.312Z,25.02
2018-08-16T04:54:39.268Z,25.02
2018-08-16T04:57:05.335Z,25.01
2018-08-16T04:59:31.212Z,24.99
2018-08-16T05:01:57.188Z,24.96
2018-08-16T05:04:23.153Z,24.97
2018-08-16T05:06:49.146Z,24.96
2018-08-16T05:09:15.139Z,24.97
2018-08-16T05:11:41.101Z,25.01
2018-08-16T05:14:07.088Z,24.99
2018-08-16T05:16:33.094Z,24.96
2018-08-16T05:18:59.062Z,24.98
2018-08-16T05:21:25.280Z,24.94
2018-08-16T05:23:51.274Z,25.02
2018-08-16T05:26:17.220Z,25.02
2018-08-16T05:28:43.199Z,24.92
2018-08-16T05:31:09.172Z,24.95
2018-08-16T05:33:35.281Z,24.98
2018-08-16T05:36:01.641Z,24.95
2018-08-16T05:38:27.857Z,24.95
2018-08-16T05:40:53.851Z,24.98
2018-08-16T05:43:19.871Z,25.03
2018-08-16T05:45:45.824Z,25.01
2018-08-16T05:48:11.794Z,24.98
2018-08-16T05:50:37.793Z,24.96
2018-08-16T05:53:03.778Z,25.01
2018-08-16T05:55:29.738Z,25.00
2018-08-16T05:57:55.700Z,24.94
2018-08-16T06:00:21.712Z,25.00
2018-08-16T06:02:47.724Z,24.94
2018-08-16T06:05:13.692Z,24.96
2018-08-16T06:07:39.921Z,25.00
2018-08-16T06:10:05.812Z,24.96
2018-08-16T06:12:31.827Z,24.99
2018-08-16T06:14:57.818Z,24.91
2018-08-16T06:17:24.028Z,24.96
2018-08-16T06:19:50.013Z,24.99
2018-08-16T06:22:16.002Z,25.01
2018-08-16T06:24:41.977Z,25.05
2018-08-16T06:27:07.942Z,25.07
2018-08-16T06:29:33.932Z,25.05
2018-08-16T06:31:59.905Z,24.98
2018-08-16T06:34:25.900Z,24.98
2018-08-16T06:36:51.892Z,25.03
2018-08-16T06:39:17.892Z,25.00
2018-08-16T06:41:43.949Z,24.97
2018-08-16T06:44:09.981Z,24.97
2018-08-16T06:46:35.942Z,24.99
2018-08-16T06:49:02.017Z,25.00
2018-08-16T06:51:27.979Z,24.96
2018-08-16T06:53:54.006Z,24.98
2018-08-16T06:56:19.983Z,24.95
2018-08-16T06:58:45.957Z,24.96
2018-08-16T07:01:11.931Z,25.02
2018-08-16T07:03:37.906Z,25.01
2018-08-16T07:06:03.880Z,25.10
2018-08-16T07:08:29.861Z,25.02
2018-08-16T07:10:55.826Z,25.02
2018-08-16T07:13:21.857Z,25.05
2018-08-16T07:15:47.869Z,25.02
2018-08-16T07:18:13.873Z,25.02
2018-08-16T07:20:39.863Z,25.04
2018-08-16T07:23:05.864Z,25.02
2018-08-16T07:25:31.865Z,25.11
2018-08-16T07:27:57.831Z,25.00
2018-08-16T07:30:23.813Z,25.00
2018-08-16T07:32:49.804Z,25.03
2018-08-16T07:35:15.808Z,25.07
2018-08-16T07:37:41.988Z,25.09
2018-08-16T07:40:07.989Z,25.11
2018-08-16T07:42:33.987Z,25.17
2018-08-16T07:44:59.985Z,25.32
2018-08-16T07:47:25.968Z,25.13
2018-08-16T07:49:51.951Z,25.16
2018-08-16T07:52:17.918Z,25.22
2018-08-16T07:54:44.173Z,25.21
2018-08-16T07:57:10.193Z,25.19
2018-08-16T07:59:36.372Z,25.19
2018-08-16T08:02:02.371Z,25.20
2018-08-16T08:04:28.397Z,25.19
2018-08-16T08:06:54.384Z,25.24
2018-08-16T08:09:20.395Z,25.18
2018-08-16T08:11:46.363Z,25.21
2018-08-16T08:14:12.351Z,25.19
2018-08-16T08:16:38.317Z,25.19
2018-08-16T08:19:04.357Z,25.29
2018-08-16T08:21:30.461Z,25.22
2018-08-16T08:23:56.513Z,25.17
2018-08-16T08:26:22.561Z,25.16
2018-08-16T08:28:48.593Z,25.12
2018-08-16T08:31:16.500Z,25.09
2018-08-16T08:33:42.435Z,25.24
2018-08-16T08:36:08.410Z,25.29
2018-08-16T08:38:34.537Z,25.35
2018-08-16T08:41:00.797Z,25.29
2018-08-16T08:43:27.067Z,25.26
2018-08-16T08:45:53.021Z,25.20
2018-08-16T08:48:18.986Z,25.22
2018-08-16T08:50:44.967Z,25.24
2018-08-16T08:53:10.955Z,25.23
2018-08-16T08:55:36.920Z,25.40
2018-08-16T08:58:02.931Z,25.34
2018-08-16T09:00:28.894Z,25.42
2018-08-16T09:02:54.864Z,25.42
2018-08-16T09:05:20.836Z,25.56
2018-08-16T09:07:46.784Z,25.40
2018-08-16T09:10:12.814Z,25.34
2018-08-16T09:12:38.805Z,25.41
2018-08-16T09:15:04.805Z,25.35
2018-08-16T09:17:30.785Z,25.30
2018-08-16T09:19:56.751Z,25.35
2018-08-16T09:22:22.770Z,25.32
2018-08-16T09:24:48.779Z,25.34
2018-08-16T09:27:14.769Z,25.34
2018-08-16T09:29:40.788Z,25.34
2018-08-16T09:32:06.734Z,25.32
2018-08-16T09:34:32.715Z,25.50
2018-08-16T09:36:58.682Z,25.58
2018-08-16T09:39:24.976Z,25.37
2018-08-16T09:41:50.855Z,25.38
2018-08-16T09:44:16.841Z,25.39
2018-08-16T09:46:43.650Z,25.50
2018-08-16T09:49:09.625Z,25.51
2018-08-16T09:51:35.951Z,25.51
2018-08-16T09:54:01.924Z,25.47
2018-08-16T09:56:27.941Z,25.56
2018-08-16T09:58:53.947Z,25.55
2018-08-16T10:01:19.935Z,25.50
2018-08-16T10:03:45.988Z,25.49
2018-08-16T10:06:11.963Z,25.46
2018-08-16T10:08:37.988Z,25.53
2018-08-16T10:11:04.055Z,25.57
2018-08-16T10:13:30.070Z,25.52
2018-08-16T10:15:56.261Z,25.53
2018-08-16T10:18:22.250Z,25.54
2018-08-16T10:20:48.328Z,25.57
2018-08-16T10:23:14.291Z,25.58
2018-08-16T10:25:40.270Z,25.59
2018-08-16T10:28:06.284Z,25.59
2018-08-16T10:30:32.262Z,25.52
2018-08-16T10:32:58.312Z,25.52
2018-08-16T10:35:24.360Z,25.48
2018-08-16T10:37:50.330Z,25.56
2018-08-16T10:40:16.344Z,25.50
2018-08-16T10:42:42.356Z,25.60
2018-08-16T10:45:08.323Z,25.55
2018-08-16T10:47:34.304Z,25.61
2018-08-16T10:50:00.309Z,25.55
2018-08-16T10:52:26.281Z,25.64
2018-08-16T10:54:52.254Z,25.63
2018-08-16T10:57:18.236Z,25.64
2018-08-16T10:59:44.209Z,25.61
2018-08-16T11:02:10.220Z,25.64
2018-08-16T11:04:36.192Z,25.67
2018-08-16T11:07:03.250Z,25.63
2018-08-16T11:09:29.245Z,25.47
2018-08-16T11:11:55.289Z,25.49
2018-08-16T11:14:21.250Z,25.45
2018-08-16T11:16:47.674Z,25.52
2018-08-16T11:19:13.674Z,25.55
2018-08-16T11:21:39.696Z,25.44
2018-08-16T11:24:05.682Z,25.41
2018-08-16T11:26:31.694Z,25.41
2018-08-16T11:28:57.734Z,25.39
2018-08-16T11:31:23.716Z,25.46
2018-08-16T11:33:49.792Z,25.42
2018-08-16T11:36:15.771Z,25.51
2018-08-16T11:38:41.807Z,25.54
2018-08-16T11:41:08.064Z,25.55
2018-08-16T11:43:35.378Z,25.49
2018-08-16T11:46:01.449Z,25.55
2018-08-16T11:48:28.202Z,25.50
2018-08-16T11:50:54.238Z,25.49
2018-08-16T11:53:20.252Z,25.45
2018-08-16T11:55:46.311Z,25.41
2018-08-16T11:58:12.311Z,25.45
2018-08-16T12:00:38.327Z,25.37
2018-08-16T12:03:04.291Z,25.52
2018-08-16T12:05:30.302Z,25.51
2018-08-16T12:07:56.395Z,25.47
2018-08-16T12:10:22.388Z,25.43
2018-08-16T12:12:48.364Z,25.88
2018-08-16T12:15:14.518Z,25.55
2018-08-16T12:17:40.601Z,25.56
2018-08-16T12:20:06.610Z,25.59
2018-08-16T12:22:32.621Z,25.66
2018-08-16T12:24:58.606Z,25.65
2018-08-16T12:27:24.604Z,25.64
2018-08-16T12:29:50.611Z,25.75
2018-08-16T12:32:16.610Z,25.76
2018-08-16T12:34:42.873Z,25.62
2018-08-16T12:37:08.847Z,25.60
2018-08-16T12:39:34.865Z,25.67
2018-08-16T12:42:00.848Z,25.67
2018-08-16T12:44:26.933Z,25.65
2018-08-16T12:46:52.862Z,25.61
2018-08-16T12:49:18.948Z,25.57
2018-08-16T12:51:44.990Z,25.60
2018-08-16T12:54:11.003Z,25.61
2018-08-16T12:56:37.040Z,25.65
2018-08-16T12:59:03.029Z,25.68
2018-08-16T13:01:29.030Z,25.67
2018-08-16T13:03:55.095Z,25.76
2018-08-16T13:06:21.079Z,25.76
2018-08-16T13:08:47.103Z,25.68
2018-08-16T13:11:14.090Z,25.76
2018-08-16T13:13:40.068Z,25.68
2018-08-16T13:16:06.095Z,25.67
2018-08-16T13:18:32.149Z,25.66
2018-08-16T13:20:58.217Z,25.72
2018-08-16T13:23:24.305Z,25.75
2018-08-16T13:25:50.402Z,25.76
2018-08-16T13:28:16.445Z,25.72
2018-08-16T13:30:42.520Z,25.89
2018-08-16T13:33:08.516Z,25.74
2018-08-16T13:35:34.531Z,25.69
2018-08-16T13:38:01.576Z,25.69
2018-08-16T13:40:27.597Z,25.62
2018-08-16T13:42:53.585Z,25.65
2018-08-16T13:45:19.597Z,25.75
2018-08-16T13:47:45.749Z,25.69
2018-08-16T13:50:11.745Z,25.77
2018-08-16T13:52:37.747Z,25.78
2018-08-16T13:55:03.752Z,25.79
2018-08-16T13:57:29.743Z,25.83
2018-08-16T13:59:55.695Z,25.98
2018-08-16T14:02:21.678Z,25.86
2018-08-16T14:04:47.687Z,25.75
2018-08-16T14:07:16.972Z,25.71
2018-08-16T14:09:43.048Z,25.63
2018-08-16T14:12:09.043Z,25.68
2018-08-16T14:14:35.042Z,25.68
2018-08-16T14:17:01.039Z,25.74
2018-08-16T14:19:27.109Z,25.74
2018-08-16T14:21:54.082Z,25.81
2018-08-16T14:24:20.181Z,25.80
2018-08-16T14:26:46.242Z,25.82
2018-08-16T14:29:12.224Z,25.76
2018-08-16T14:31:38.301Z,25.83
2018-08-16T14:34:04.311Z,25.83
2018-08-16T14:36:30.313Z,25.77
2018-08-16T14:38:56.306Z,25.84
2018-08-16T14:41:22.313Z,25.79
2018-08-16T14:43:48.329Z,25.83
2018-08-16T14:46:14.313Z,25.80
2018-08-16T14:48:40.336Z,25.76
2018-08-16T14:51:06.294Z,25.75
2018-08-16T14:53:32.319Z,25.72
2018-08-16T14:55:58.336Z,25.70
2018-08-16T14:58:24.317Z,25.73
2018-08-16T15:00:50.293Z,25.72
2018-08-16T15:03:16.272Z,25.77
2018-08-16T15:05:42.268Z,25.78
2018-08-16T15:08:08.247Z,25.82
2018-08-16T15:10:34.476Z,25.71
2018-08-16T15:13:00.467Z,25.76
2018-08-16T15:15:26.648Z,25.72
2018-08-16T15:17:52.625Z,25.74
2018-08-16T15:20:18.589Z,25.78
2018-08-16T15:22:44.633Z,25.79
2018-08-16T15:25:10.584Z,25.74
2018-08-16T15:27:36.590Z,25.72
2018-08-16T15:30:02.560Z,25.73
2018-08-16T15:32:28.540Z,25.72
2018-08-16T15:34:54.526Z,25.68
2018-08-16T15:37:20.634Z,25.84
2018-08-16T15:39:46.687Z,25.73
2018-08-16T15:42:12.673Z,25.78
2018-08-16T15:44:38.664Z,25.90
2018-08-16T15:47:04.745Z,25.90
2018-08-16T15:49:30.739Z,25.85
2018-08-16T15:51:56.757Z,25.85
2018-08-16T15:54:22.751Z,25.82
2018-08-16T15:56:48.787Z,25.85
2018-08-16T15:59:14.811Z,25.78
2018-08-16T16:01:40.822Z,25.77
2018-08-16T16:04:06.804Z,25.94
2018-08-16T16:06:32.813Z,25.71
2018-08-16T16:08:58.817Z,25.81
2018-08-16T16:11:24.831Z,25.86
2018-08-16T16:13:50.833Z,25.86
2018-08-16T16:16:16.820Z,25.92
2018-08-16T16:18:42.783Z,25.97
2018-08-16T16:21:08.798Z,25.91
2018-08-16T16:23:34.781Z,25.93
2018-08-16T16:26:00.746Z,25.80
2018-08-16T16:28:26.763Z,25.98
2018-08-16T16:30:52.811Z,25.87
2018-08-16T16:33:18.746Z,25.81
2018-08-16T16:35:44.708Z,25.83
2018-08-16T16:38:10.698Z,25.73
2018-08-16T16:40:36.656Z,25.79
2018-08-16T16:43:02.624Z,25.82
2018-08-16T16:45:28.602Z,25.83
2018-08-16T16:47:54.583Z,25.78
2018-08-16T16:50:20.552Z,25.82
2018-08-16T16:52:46.527Z,25.78
2018-08-16T16:55:12.495Z,25.83
2018-08-16T16:57:38.725Z,25.98
2018-08-16T17:00:04.685Z,25.92
2018-08-16T17:02:30.695Z,25.88
2018-08-16T17:04:56.668Z,25.79
2018-08-16T17:07:22.727Z,25.90
2018-08-16T17:09:48.663Z,25.80
2018-08-16T17:12:14.649Z,25.80
2018-08-16T17:14:40.676Z,25.81
2018-08-16T17:17:06.769Z,25.75
2018-08-16T17:19:32.786Z,25.91
2018-08-16T17:21:58.745Z,25.75
2018-08-16T17:24:24.728Z,25.83
2018-08-16T17:26:50.719Z,25.77
2018-08-16T17:29:16.720Z,25.82
2018-08-16T17:31:42.723Z,25.75
2018-08-16T17:34:08.733Z,25.73
2018-08-16T17:36:34.749Z,25.68
2018-08-16T17:39:00.736Z,25.71
2018-08-16T17:41:26.749Z,25.75
2018-08-16T17:43:52.769Z,25.67
2018-08-16T17:46:18.752Z,25.75
2018-08-16T17:48:44.789Z,25.68
2018-08-16T17:51:10.783Z,25.69
2018-08-16T17:53:36.783Z,25.75
2018-08-16T17:56:02.757Z,25.70
2018-08-16T17:58:28.719Z,25.79
2018-08-16T18:00:55.099Z,25.80
2018-08-16T18:03:20.990Z,25.73
2018-08-16T18:05:47.000Z,25.83
2018-08-16T18:08:12.987Z,25.91
2018-08-16T18:10:38.968Z,25.83
2018-08-16T18:13:04.924Z,25.80
2018-08-16T18:15:30.936Z,25.76
2018-08-16T18:17:56.994Z,25.71
2018-08-16T18:20:22.971Z,25.76
2018-08-16T18:22:48.926Z,25.77
2018-08-16T18:25:14.891Z,25.80
2018-08-16T18:27:40.880Z,25.81
2018-08-16T18:30:06.884Z,25.82
2018-08-16T18:32:32.858Z,25.82
2018-08-16T18:34:58.820Z,25.77
2018-08-16T18:37:24.837Z,25.73
2018-08-16T18:39:51.623Z,25.79
2018-08-16T18:42:17.679Z,25.71
2018-08-16T18:44:43.703Z,25.78
2018-08-16T18:47:09.670Z,25.77
2018-08-16T18:49:35.673Z,25.76
2018-08-16T18:52:01.698Z,25.81
2018-08-16T18:54:27.684Z,25.77
2018-08-16T18:56:53.674Z,25.75
2018-08-16T18:59:19.698Z,25.82
2018-08-16T19:01:45.722Z,25.85
2018-08-16T19:04:11.701Z,25.96
2018-08-16T19:06:37.731Z,26.00
2018-08-16T19:09:03.728Z,25.76
2018-08-16T19:11:29.706Z,25.80
2018-08-16T19:13:55.706Z,25.74
2018-08-16T19:16:21.723Z,25.74
2018-08-16T19:18:47.716Z,25.74
2018-08-16T19:21:13.714Z,25.70
2018-08-16T19:23:39.709Z,25.65
2018-08-16T19:26:05.682Z,25.64
2018-08-16T19:28:31.688Z,25.66
2018-08-16T19:30:57.700Z,25.65
2018-08-16T19:33:23.707Z,25.64
2018-08-16T19:35:49.733Z,25.70
2018-08-16T19:38:15.681Z,25.68
2018-08-16T19:40:41.662Z,25.63
2018-08-16T19:43:07.630Z,25.65
2018-08-16T19:45:33.616Z,25.70
2018-08-16T19:47:59.639Z,25.78
2018-08-16T19:50:25.676Z,25.70
2018-08-16T19:52:51.698Z,25.63
2018-08-16T19:55:17.671Z,25.63
2018-08-16T19:57:43.647Z,25.62
2018-08-16T20:00:09.609Z,25.63
2018-08-16T20:02:35.598Z,25.67
2018-08-16T20:05:01.558Z,25.65
2018-08-16T20:07:27.508Z,25.61
2018-08-16T20:09:53.541Z,25.63
2018-08-16T20:12:19.471Z,25.62
2018-08-16T20:14:45.431Z,25.61
2018-08-16T20:17:11.419Z,25.62
2018-08-16T20:19:37.518Z,25.62
2018-08-16T20:22:03.392Z,25.63
2018-08-16T20:24:29.381Z,25.69
2018-08-16T20:26:55.363Z,25.81
2018-08-16T20:29:21.322Z,25.71
2018-08-16T20:31:47.316Z,25.66
2018-08-16T20:34:14.015Z,25.96
2018-08-16T20:36:40.010Z,25.80
2018-08-16T20:39:05.984Z,25.81
2018-08-16T20:41:31.991Z,25.79
2018-08-16T20:43:58.032Z,25.77
2018-08-16T20:46:24.064Z,25.81
2018-08-16T20:48:50.155Z,25.80
2018-08-16T20:51:16.163Z,25.77
2018-08-16T20:53:42.160Z,25.75
2018-08-16T20:56:08.135Z,25.77
2018-08-16T20:58:34.134Z,25.74
2018-08-16T21:01:00.174Z,25.81
2018-08-16T21:03:26.131Z,25.81
2018-08-16T21:05:52.082Z,25.84
2018-08-16T21:08:18.055Z,25.92
2018-08-16T21:10:44.017Z,25.92
2018-08-16T21:13:10.058Z,25.92
2018-08-16T21:15:36.051Z,25.94
2018-08-16T21:18:02.039Z,25.88
2018-08-16T21:20:28.159Z,25.88
2018-08-16T21:22:54.137Z,25.87
2018-08-16T21:25:20.195Z,25.92
2018-08-16T21:27:46.195Z,25.85
2018-08-16T21:30:12.214Z,25.85
2018-08-16T21:32:38.296Z,25.84
2018-08-16T21:35:04.270Z,25.86
2018-08-16T21:37:30.272Z,25.84
2018-08-16T21:39:57.335Z,25.84
2018-08-16T21:42:23.294Z,25.83
2018-08-16T21:44:49.257Z,25.79
2018-08-16T21:47:15.221Z,26.03
2018-08-16T21:49:41.209Z,25.77
2018-08-16T21:52:07.269Z,25.80
2018-08-16T21:54:33.217Z,25.85
2018-08-16T21:56:59.183Z,25.80
2018-08-16T21:59:25.446Z,25.84
2018-08-16T22:01:51.441Z,25.80
2018-08-16T22:04:17.433Z,25.80
2018-08-16T22:06:43.427Z,25.95
2018-08-16T22:09:09.425Z,25.80
2018-08-16T22:11:35.397Z,25.81
2018-08-16T22:14:01.411Z,25.77
2018-08-16T22:16:27.388Z,25.77
2018-08-16T22:18:53.468Z,25.78
2018-08-16T22:21:19.434Z,25.71
2018-08-16T22:23:45.468Z,25.70
2018-08-16T22:26:11.490Z,25.69
2018-08-16T22:28:37.462Z,25.71
2018-08-16T22:31:03.459Z,25.70
2018-08-16T22:33:29.444Z,25.69
2018-08-16T22:35:55.453Z,25.70
2018-08-16T22:38:21.451Z,25.76
2018-08-16T22:40:47.462Z,25.75
2018-08-16T22:43:13.458Z,25.72
2018-08-16T22:45:39.466Z,25.70
2018-08-16T22:48:05.459Z,25.72
2018-08-16T22:50:31.433Z,25.70
2018-08-16T22:52:57.430Z,25.96
2018-08-16T22:55:23.434Z,25.87
2018-08-16T22:57:49.367Z,25.75
2018-08-16T23:00:15.407Z,25.65
2018-08-16T23:02:41.393Z,25.67
2018-08-16T23:05:07.379Z,25.69
2018-08-16T23:07:33.731Z,25.70
2018-08-16T23:09:59.688Z,25.67
2018-08-16T23:12:25.666Z,25.65
2018-08-16T23:14:51.628Z,25.67
2018-08-16T23:17:17.851Z,25.68
2018-08-16T23:19:43.816Z,25.69
2018-08-16T23:22:09.866Z,25.65
2018-08-16T23:24:35.882Z,25.69
2018-08-16T23:27:01.899Z,25.68
2018-08-16T23:29:27.872Z,25.65
2018-08-16T23:31:53.855Z,25.70
2018-08-16T23:34:19.839Z,25.67
2018-08-16T23:36:45.785Z,25.72
2018-08-16T23:39:11.780Z,25.69
2018-08-16T23:41:37.759Z,25.67
2018-08-16T23:44:03.850Z,25.60
2018-08-16T23:46:29.840Z,25.69
2018-08-16T23:48:55.820Z,25.66
2018-08-16T23:51:21.784Z,25.65
2018-08-16T23:53:47.749Z,25.59
2018-08-16T23:56:13.703Z,25.62
2018-08-16T23:58:39.719Z,25.60
